createdAt,value
2018-04-11T00:01:12.189Z,28.50
2018-04-11T00:03:39.667Z,27.80
2018-04-11T00:06:07.953Z,30.17
2018-04-11T00:08:35.436Z,28.17
2018-04-11T00:11:02.906Z,26.13
2018-04-11T00:13:30.394Z,28.23
2018-04-11T00:15:58.384Z,29.90
2018-04-11T00:18:26.608Z,30.20
2018-04-11T00:20:54.193Z,28.63
2018-04-11T00:23:23.181Z,28.07
2018-04-11T00:25:50.665Z,31.10
2018-04-11T00:28:18.916Z,28.20
2018-04-11T00:30:46.359Z,27.70
2018-04-11T00:33:13.832Z,28.33
2018-04-11T00:35:41.312Z,29.53
2018-04-11T00:38:09.540Z,31.10
2018-04-11T00:40:37.046Z,33.57
2018-04-11T00:43:05.267Z,31.10
2018-04-11T00:45:32.749Z,34.37
2018-04-11T00:48:00.237Z,37.63
2018-04-11T00:50:28.461Z,38.47
2018-04-11T00:53:07.918Z,37.37
2018-04-11T00:55:35.372Z,38.63
2018-04-11T00:58:02.851Z,41.63
2018-04-11T01:00:31.342Z,38.90
2018-04-11T01:02:59.574Z,42.90
2018-04-11T01:05:27.033Z,40.27
2018-04-11T01:07:54.540Z,41.23
2018-04-11T01:10:22.007Z,39.53
2018-04-11T01:12:49.525Z,42.00
2018-04-11T01:15:16.985Z,42.50
2018-04-11T01:17:45.218Z,39.53
2018-04-11T01:20:12.693Z,38.87
2018-04-11T01:22:40.161Z,41.40
2018-04-11T01:25:07.617Z,37.83
2018-04-11T01:27:35.076Z,39.10
2018-04-11T01:30:02.561Z,38.87
2018-04-11T01:32:30.794Z,40.27
2018-04-11T01:34:59.016Z,38.87
2018-04-11T01:37:26.501Z,40.10
2018-04-11T01:39:53.993Z,36.57
2018-04-11T01:42:22.241Z,37.43
2018-04-11T01:44:49.717Z,36.30
2018-04-11T01:47:17.188Z,38.90
2018-04-11T01:49:44.655Z,36.77
2018-04-11T01:52:12.892Z,39.47
2018-04-11T01:54:40.366Z,34.27
2018-04-11T01:57:07.986Z,40.67
2018-04-11T01:59:35.465Z,39.70
2018-04-11T02:02:02.930Z,40.00
2018-04-11T02:04:30.414Z,41.03
2018-04-11T02:06:58.653Z,38.40
2018-04-11T02:09:26.115Z,32.93
2018-04-11T02:11:53.616Z,44.13
2018-04-11T02:14:21.849Z,40.00
2018-04-11T02:16:49.315Z,41.63
2018-04-11T02:19:17.817Z,52.37
2018-04-11T02:21:45.315Z,42.53
2018-04-11T02:24:12.805Z,40.00
2018-04-11T02:26:40.281Z,42.17
2018-04-11T02:29:07.752Z,41.60
2018-04-11T02:31:35.995Z,43.87
2018-04-11T02:34:03.470Z,46.83
2018-04-11T02:36:30.935Z,46.77
2018-04-11T02:38:58.402Z,48.03
2018-04-11T02:41:26.640Z,47.07
2018-04-11T02:43:54.093Z,37.43
2018-04-11T02:46:21.640Z,47.00
2018-04-11T02:48:49.106Z,47.33
2018-04-11T02:51:16.609Z,45.43
2018-04-11T02:53:44.833Z,46.97
2018-04-11T02:56:12.297Z,46.37
2018-04-11T02:58:39.769Z,43.70
2018-04-11T03:01:07.249Z,57.47
2018-04-11T03:03:35.544Z,57.43
2018-04-11T03:06:03.022Z,60.83
2018-04-11T03:08:30.492Z,52.97
2018-04-11T03:10:57.961Z,57.47
2018-04-11T03:13:25.423Z,49.93
2018-04-11T03:15:52.884Z,49.80
2018-04-11T03:18:20.372Z,59.87
2018-04-11T03:20:48.613Z,62.50
2018-04-11T03:23:16.422Z,56.80
2018-04-11T03:25:43.907Z,66.17
2018-04-11T03:28:11.369Z,57.73
2018-04-11T03:30:38.837Z,62.40
2018-04-11T03:33:06.309Z,59.20
2018-04-11T03:35:33.774Z,55.80
2018-04-11T03:38:01.246Z,60.40
2018-04-11T03:40:29.485Z,54.47
2018-04-11T03:42:56.943Z,53.60
2018-04-11T03:45:24.397Z,50.20
2018-04-11T03:47:52.633Z,55.03
2018-04-11T03:50:20.104Z,57.97
2018-04-11T03:52:47.590Z,59.07
2018-04-11T03:55:15.100Z,51.67
2018-04-11T03:57:42.552Z,53.07
2018-04-11T04:00:10.020Z,52.87
2018-04-11T04:02:37.479Z,52.77
2018-04-11T04:05:05.043Z,57.93
2018-04-11T04:07:33.205Z,57.80
2018-04-11T04:10:01.434Z,51.43
2018-04-11T04:12:28.896Z,55.07
2018-04-11T04:15:08.235Z,62.03
2018-04-11T04:17:47.723Z,58.60
2018-04-11T04:20:27.141Z,60.23
2018-04-11T04:22:54.605Z,53.93
2018-04-11T04:25:22.060Z,58.53
2018-04-11T04:27:49.531Z,55.97
2018-04-11T04:30:17.006Z,64.33
2018-04-11T04:32:44.479Z,73.03
2018-04-11T04:35:11.952Z,63.47
2018-04-11T04:37:39.428Z,64.90
2018-04-11T04:40:07.656Z,66.07
2018-04-11T04:42:35.241Z,69.00
2018-04-11T04:45:02.722Z,63.60
2018-04-11T04:47:30.957Z,67.73
2018-04-11T04:49:58.424Z,69.27
2018-04-11T04:52:25.901Z,61.90
2018-04-11T04:54:54.115Z,62.80
2018-04-11T04:57:21.572Z,62.37
2018-04-11T04:59:49.052Z,55.33
2018-04-11T05:02:17.164Z,58.17
2018-04-11T05:04:45.385Z,57.90
2018-04-11T05:07:12.863Z,58.50
2018-04-11T05:09:40.324Z,59.60
2018-04-11T05:12:07.796Z,61.07
2018-04-11T05:14:35.257Z,57.13
2018-04-11T05:17:03.526Z,56.73
2018-04-11T05:19:30.981Z,60.00
2018-04-11T05:21:58.448Z,58.53
2018-04-11T05:24:26.668Z,57.33
2018-04-11T05:26:54.141Z,57.43
2018-04-11T05:29:21.608Z,58.60
2018-04-11T05:31:49.071Z,55.17
2018-04-11T05:34:16.576Z,55.07
2018-04-11T05:36:44.055Z,61.57
2018-04-11T05:39:11.559Z,60.37
2018-04-11T05:41:39.017Z,60.80
2018-04-11T05:44:07.264Z,58.87
2018-04-11T05:46:34.737Z,56.40
2018-04-11T05:49:02.204Z,58.73
2018-04-11T05:51:29.678Z,58.30
2018-04-11T05:53:57.917Z,61.03
2018-04-11T05:56:25.380Z,59.80
2018-04-11T05:58:52.841Z,61.17
2018-04-11T06:01:20.309Z,57.50
2018-04-11T06:03:47.769Z,57.63
2018-04-11T06:06:16.011Z,56.00
2018-04-11T06:08:43.497Z,60.70
2018-04-11T06:11:10.964Z,58.63
2018-04-11T06:13:39.192Z,58.40
2018-04-11T06:16:06.673Z,54.47
2018-04-11T06:18:34.124Z,56.30
2018-04-11T06:21:01.587Z,46.43
2018-04-11T06:23:29.054Z,39.87
2018-04-11T06:25:56.560Z,36.40
2018-04-11T06:28:24.017Z,38.17
2018-04-11T06:30:51.496Z,42.90
2018-04-11T06:33:18.949Z,38.07
2018-04-11T06:35:46.408Z,41.40
2018-04-11T06:38:13.879Z,38.77
2018-04-11T06:40:41.339Z,39.77
2018-04-11T06:43:08.820Z,47.10
2018-04-11T06:45:37.046Z,44.47
2018-04-11T06:48:04.523Z,48.57
2018-04-11T06:50:31.981Z,44.37
2018-04-11T06:52:59.444Z,47.63
2018-04-11T06:55:26.920Z,50.83
2018-04-11T06:57:55.170Z,52.97
2018-04-11T07:00:22.645Z,51.30
2018-04-11T07:02:50.104Z,54.87
2018-04-11T07:05:18.348Z,52.00
2018-04-11T07:07:45.817Z,55.90
2018-04-11T07:10:14.802Z,55.67
2018-04-11T07:12:42.256Z,62.37
2018-04-11T07:15:09.716Z,53.93
2018-04-11T07:17:37.196Z,56.60
2018-04-11T07:20:04.654Z,55.60
2018-04-11T07:22:32.886Z,59.60
2018-04-11T07:25:00.340Z,57.13
2018-04-11T07:27:27.821Z,54.70
2018-04-11T07:29:55.288Z,54.13
2018-04-11T07:32:22.760Z,53.80
2018-04-11T07:34:50.984Z,58.40
2018-04-11T07:37:19.222Z,53.70
2018-04-11T07:39:47.456Z,54.17
2018-04-11T07:42:14.926Z,56.30
2018-04-11T07:44:42.401Z,50.27
2018-04-11T07:47:10.710Z,52.67
2018-04-11T07:49:38.516Z,51.63
2018-04-11T07:52:05.980Z,50.40
2018-04-11T07:54:34.974Z,50.27
2018-04-11T07:57:02.399Z,50.10
2018-04-11T07:59:29.878Z,52.53
2018-04-11T08:01:57.364Z,50.70
2018-04-11T08:04:25.626Z,50.37
2018-04-11T08:06:53.072Z,50.87
2018-04-11T08:09:20.537Z,51.17
2018-04-11T08:11:48.011Z,48.50
2018-04-11T08:14:16.224Z,50.70
2018-04-11T08:16:43.684Z,49.07
2018-04-11T08:19:11.372Z,50.00
2018-04-11T08:21:38.833Z,51.63
2018-04-11T08:24:05.814Z,49.47
2018-04-11T08:26:34.046Z,47.60
2018-04-11T08:29:01.511Z,48.10
2018-04-11T08:31:29.004Z,47.30
2018-04-11T08:33:56.540Z,48.60
2018-04-11T08:36:24.044Z,46.93
2018-04-11T08:38:51.500Z,45.60
2018-04-11T08:41:19.741Z,47.73
2018-04-11T08:43:47.980Z,46.60
2018-04-11T08:46:15.468Z,47.17
2018-04-11T08:48:43.713Z,47.87
2018-04-11T08:51:11.189Z,42.80
2018-04-11T08:53:38.649Z,43.27
2018-04-11T08:56:06.133Z,43.47
2018-04-11T08:58:33.596Z,42.47
2018-04-11T09:01:01.053Z,46.30
2018-04-11T09:03:28.528Z,42.87
2018-04-11T09:05:55.998Z,41.37
2018-04-11T09:08:23.485Z,44.63
2018-04-11T09:10:50.972Z,44.37
2018-04-11T09:13:18.441Z,43.03
2018-04-11T09:15:45.896Z,43.83
2018-04-11T09:18:13.368Z,39.93
2018-04-11T09:20:40.829Z,41.63
2018-04-11T09:23:08.306Z,41.17
2018-04-11T09:25:35.779Z,42.60
2018-04-11T09:28:03.241Z,38.83
2018-04-11T09:30:30.727Z,41.47
2018-04-11T09:32:58.961Z,40.73
2018-04-11T09:35:26.423Z,40.43
2018-04-11T09:37:53.896Z,40.30
2018-04-11T09:40:22.115Z,40.50
2018-04-11T09:42:49.598Z,41.63
2018-04-11T09:45:17.057Z,38.37
2018-04-11T09:47:44.532Z,41.87
2018-04-11T09:50:11.985Z,39.47
2018-04-11T09:52:39.444Z,38.63
2018-04-11T09:55:06.917Z,39.03
2018-04-11T09:57:35.170Z,41.67
2018-04-11T10:00:02.633Z,41.90
2018-04-11T10:02:35.846Z,43.80
2018-04-11T10:05:04.109Z,40.97
2018-04-11T10:07:32.332Z,40.90
2018-04-11T10:09:59.789Z,37.67
2018-04-11T10:12:27.274Z,39.23
2018-04-11T10:14:54.745Z,38.77
2018-04-11T10:17:22.220Z,39.00
2018-04-11T10:19:50.469Z,39.17
2018-04-11T10:22:17.926Z,38.17
2018-04-11T10:24:45.396Z,40.50
2018-04-11T10:27:12.866Z,39.33
2018-04-11T10:29:42.009Z,38.57
2018-04-11T10:32:09.464Z,39.53
2018-04-11T10:34:37.351Z,41.33
2018-04-11T10:37:04.828Z,40.93
2018-04-11T10:39:32.337Z,41.60
2018-04-11T10:41:59.799Z,41.33
2018-04-11T10:44:27.252Z,43.30
2018-04-11T10:46:54.762Z,42.80
2018-04-11T10:49:22.220Z,45.20
2018-04-11T10:51:50.448Z,43.33
2018-04-11T10:54:17.909Z,40.90
2018-04-11T10:56:45.393Z,43.80
2018-04-11T10:59:13.705Z,44.10
2018-04-11T11:01:41.169Z,42.17
2018-04-11T11:04:08.631Z,45.93
2018-04-11T11:06:36.115Z,42.23
2018-04-11T11:09:03.600Z,45.30
2018-04-11T11:11:31.076Z,40.47
2018-04-11T11:13:59.356Z,42.43
2018-04-11T11:16:35.349Z,40.90
2018-04-11T11:19:02.821Z,41.00
2018-04-11T11:21:30.283Z,41.13
2018-04-11T11:23:57.792Z,44.43
2018-04-11T11:26:25.314Z,41.60
2018-04-11T11:28:52.781Z,41.10
2018-04-11T11:31:20.249Z,41.57
2018-04-11T11:33:48.468Z,41.00
2018-04-11T11:36:15.936Z,41.20
2018-04-11T11:38:43.454Z,43.27
2018-04-11T11:41:11.675Z,42.20
2018-04-11T11:43:39.160Z,44.43
2018-04-11T11:46:06.622Z,43.10
2018-04-11T11:48:34.849Z,42.57
2018-04-11T11:51:02.317Z,43.27
2018-04-11T11:53:29.790Z,43.97
2018-04-11T11:55:57.250Z,41.07
2018-04-11T11:58:24.715Z,44.53
2018-04-11T12:00:52.184Z,41.83
2018-04-11T12:03:20.417Z,42.60
2018-04-11T12:05:48.293Z,46.40
2018-04-11T12:08:15.779Z,46.83
2018-04-11T12:10:44.018Z,42.93
2018-04-11T12:13:11.507Z,41.73
2018-04-11T12:15:38.963Z,44.73
2018-04-11T12:18:07.202Z,46.07
2018-04-11T12:20:34.669Z,42.60
2018-04-11T12:23:02.145Z,44.00
2018-04-11T12:25:29.624Z,42.77
2018-04-11T12:27:58.168Z,42.77
2018-04-11T12:30:25.645Z,43.60
2018-04-11T12:32:53.616Z,43.80
2018-04-11T12:35:21.091Z,43.20
2018-04-11T12:37:49.323Z,43.20
2018-04-11T12:40:16.816Z,43.43
2018-04-11T12:42:45.063Z,43.60
2018-04-11T12:45:12.524Z,42.60
2018-04-11T12:47:39.994Z,43.40
2018-04-11T12:50:07.464Z,44.37
2018-04-11T12:52:36.344Z,41.40
2018-04-11T12:55:03.820Z,42.10
2018-04-11T12:57:32.045Z,44.63
2018-04-11T12:59:59.603Z,41.30
2018-04-11T13:02:27.139Z,41.07
2018-04-11T13:04:54.672Z,40.17
2018-04-11T13:07:22.935Z,43.13
2018-04-11T13:09:51.154Z,42.37
2018-04-11T13:12:18.629Z,44.17
2018-04-11T13:14:46.092Z,43.53
2018-04-11T13:17:13.560Z,45.53
2018-04-11T13:19:41.016Z,43.47
2018-04-11T13:22:08.472Z,44.07
2018-04-11T13:24:35.956Z,42.83
2018-04-11T13:27:04.199Z,44.13
2018-04-11T13:29:31.676Z,42.70
2018-04-11T13:31:59.337Z,45.73
2018-04-11T13:34:26.801Z,44.80
2018-04-11T13:36:55.060Z,44.67
2018-04-11T13:39:22.521Z,43.80
2018-04-11T13:41:49.988Z,44.67
2018-04-11T13:44:18.248Z,45.93
2018-04-11T13:46:45.716Z,45.00
2018-04-11T13:49:13.951Z,43.97
2018-04-11T13:51:41.421Z,42.50
2018-04-11T13:54:08.889Z,42.97
2018-04-11T13:56:36.374Z,44.37
2018-04-11T13:59:04.597Z,46.53
2018-04-11T14:01:32.065Z,43.93
2018-04-11T14:03:59.797Z,43.43
2018-04-11T14:06:27.252Z,41.30
2018-04-11T14:08:54.733Z,42.93
2018-04-11T14:11:22.195Z,43.20
2018-04-11T14:13:49.673Z,43.03
2018-04-11T14:16:17.132Z,44.70
2018-04-11T14:18:44.589Z,44.17
2018-04-11T14:21:12.106Z,43.90
2018-04-11T14:23:39.573Z,43.40
2018-04-11T14:26:07.079Z,42.43
2018-04-11T14:28:35.308Z,44.60
2018-04-11T14:31:02.769Z,46.03
2018-04-11T14:33:30.247Z,44.47
2018-04-11T14:35:58.604Z,44.27
2018-04-11T14:38:26.110Z,44.13
2018-04-11T14:40:54.348Z,43.40
2018-04-11T14:43:21.839Z,44.10
2018-04-11T14:45:49.318Z,44.77
2018-04-11T14:48:17.662Z,42.17
2018-04-11T14:50:45.915Z,43.67
2018-04-11T14:53:13.369Z,45.57
2018-04-11T14:55:40.840Z,43.07
2018-04-11T14:58:08.330Z,43.20
2018-04-11T15:00:35.792Z,44.53
2018-04-11T15:03:03.272Z,44.20
2018-04-11T15:05:30.736Z,44.40
2018-04-11T15:07:59.150Z,45.90
2018-04-11T15:10:26.665Z,45.17
2018-04-11T15:12:54.121Z,45.37
2018-04-11T15:15:21.602Z,43.83
2018-04-11T15:17:49.068Z,40.43
2018-04-11T15:20:16.536Z,39.47
2018-04-11T15:22:44.789Z,42.47
2018-04-11T15:25:12.265Z,40.93
2018-04-11T15:27:39.737Z,40.70
2018-04-11T15:30:07.249Z,41.60
2018-04-11T15:32:34.700Z,42.53
2018-04-11T15:35:02.169Z,43.90
2018-04-11T15:37:29.640Z,41.43
2018-04-11T15:39:57.113Z,36.40
2018-04-11T15:42:25.348Z,39.83
2018-04-11T15:44:53.544Z,41.67
2018-04-11T15:47:21.017Z,37.80
2018-04-11T15:49:48.475Z,40.20
2018-04-11T15:52:16.719Z,40.53
2018-04-11T15:54:44.176Z,39.90
2018-04-11T15:57:11.641Z,40.90
2018-04-11T15:59:39.945Z,41.40
2018-04-11T16:02:08.172Z,38.80
2018-04-11T16:04:35.668Z,41.40
2018-04-11T16:07:03.143Z,42.60
2018-04-11T16:09:31.365Z,44.03
2018-04-11T16:11:58.849Z,41.00
2018-04-11T16:14:26.315Z,43.73
2018-04-11T16:16:53.793Z,41.47
2018-04-11T16:19:22.025Z,43.57
2018-04-11T16:21:49.493Z,42.77
2018-04-11T16:24:16.975Z,42.47
2018-04-11T16:26:45.204Z,44.07
2018-04-11T16:29:12.664Z,42.17
2018-04-11T16:31:40.136Z,43.40
2018-04-11T16:34:07.628Z,40.70
2018-04-11T16:36:35.094Z,44.43
2018-04-11T16:39:02.615Z,41.37
2018-04-11T16:41:30.092Z,42.10
2018-04-11T16:43:58.326Z,48.40
2018-04-11T16:46:25.829Z,45.63
2018-04-11T16:48:54.076Z,45.20
2018-04-11T16:51:21.579Z,45.73
2018-04-11T16:53:49.037Z,48.80
2018-04-11T16:56:17.012Z,44.17
2018-04-11T16:58:44.472Z,47.17
2018-04-11T17:01:11.937Z,48.73
2018-04-11T17:03:39.458Z,49.97
2018-04-11T17:06:06.884Z,50.43
2018-04-11T17:08:34.365Z,48.00
2018-04-11T17:11:02.617Z,48.97
2018-04-11T17:13:30.071Z,51.77
2018-04-11T17:15:57.560Z,50.50
2018-04-11T17:18:25.782Z,50.47
2018-04-11T17:21:05.808Z,52.03
2018-04-11T17:23:45.898Z,49.67
2018-04-11T17:26:25.141Z,50.50
2018-04-11T17:29:04.588Z,49.17
2018-04-11T17:31:32.051Z,50.10
2018-04-11T17:33:59.514Z,49.43
2018-04-11T17:36:27.772Z,51.73
2018-04-11T17:38:55.243Z,54.40
2018-04-11T17:41:23.467Z,53.57
2018-04-11T17:43:50.938Z,48.07
2018-04-11T17:46:18.396Z,50.83
2018-04-11T17:48:45.859Z,48.90
2018-04-11T17:51:13.368Z,51.70
2018-04-11T17:53:40.839Z,49.80
2018-04-11T17:56:08.297Z,51.60
2018-04-11T17:58:36.073Z,48.73
2018-04-11T18:01:03.534Z,49.77
2018-04-11T18:03:31.015Z,51.60
2018-04-11T18:05:58.508Z,51.00
2018-04-11T18:08:26.037Z,49.60
2018-04-11T18:10:53.456Z,49.93
2018-04-11T18:13:20.982Z,50.30
2018-04-11T18:15:48.457Z,52.63
2018-04-11T18:18:16.021Z,49.27
2018-04-11T18:20:43.488Z,53.87
2018-04-11T18:23:10.946Z,49.10
2018-04-11T18:25:38.425Z,53.40
2018-04-11T18:28:05.913Z,51.50
2018-04-11T18:30:33.365Z,53.87
2018-04-11T18:33:01.629Z,53.00
2018-04-11T18:35:29.095Z,56.03
2018-04-11T18:37:57.160Z,55.57
2018-04-11T18:40:24.628Z,54.77
2018-04-11T18:42:53.734Z,51.83
2018-04-11T18:45:21.984Z,54.80
2018-04-11T18:47:49.456Z,55.63
2018-04-11T18:50:17.688Z,54.60
2018-04-11T18:52:45.152Z,55.40
2018-04-11T18:55:12.685Z,51.80
2018-04-11T18:57:40.168Z,54.00
2018-04-11T19:00:08.441Z,54.63
2018-04-11T19:02:35.967Z,53.50
2018-04-11T19:05:03.433Z,53.17
2018-04-11T19:07:30.893Z,52.00
2018-04-11T19:09:58.389Z,52.50
2018-04-11T19:12:25.852Z,50.50
2018-04-11T19:14:53.326Z,53.30
2018-04-11T19:17:21.582Z,52.63
2018-04-11T19:19:49.050Z,54.83
2018-04-11T19:22:17.301Z,53.00
2018-04-11T19:24:44.776Z,51.60
2018-04-11T19:27:12.237Z,52.00
2018-04-11T19:29:40.465Z,52.73
2018-04-11T19:32:07.945Z,54.17
2018-04-11T19:34:35.416Z,57.13
2018-04-11T19:37:02.933Z,52.97
2018-04-11T19:39:30.394Z,51.73
2018-04-11T19:41:57.854Z,56.17
2018-04-11T19:44:26.322Z,57.43
2018-04-11T19:46:54.653Z,58.83
2018-04-11T19:49:22.109Z,59.07
2018-04-11T19:51:49.576Z,55.73
2018-04-11T19:54:17.831Z,59.60
2018-04-11T19:56:45.346Z,59.20
2018-04-11T19:59:12.808Z,59.97
2018-04-11T20:01:40.294Z,57.60
2018-04-11T20:04:07.768Z,61.40
2018-04-11T20:06:35.241Z,57.70
2018-04-11T20:09:03.504Z,56.63
2018-04-11T20:11:30.985Z,58.80
2018-04-11T20:13:58.491Z,61.97
2018-04-11T20:16:25.990Z,60.90
2018-04-11T20:18:54.309Z,61.43
2018-04-11T20:21:21.764Z,59.97
2018-04-11T20:23:49.267Z,61.00
2018-04-11T20:26:16.734Z,59.53
2018-04-11T20:28:45.005Z,61.37
2018-04-11T20:31:12.991Z,57.27
2018-04-11T20:33:41.236Z,60.93
2018-04-11T20:36:08.716Z,62.93
2018-04-11T20:38:36.948Z,59.77
2018-04-11T20:41:04.440Z,61.67
2018-04-11T20:43:32.664Z,57.17
2018-04-11T20:46:00.160Z,63.30
2018-04-11T20:48:27.643Z,62.37
2018-04-11T20:50:55.886Z,60.57
2018-04-11T20:53:23.348Z,64.40
2018-04-11T20:55:50.825Z,67.57
2018-04-11T20:58:19.092Z,63.17
2018-04-11T21:00:47.334Z,67.57
2018-04-11T21:03:14.812Z,68.27
2018-04-11T21:05:42.305Z,68.97
2018-04-11T21:08:09.853Z,63.37
2018-04-11T21:10:38.080Z,65.90
2018-04-11T21:13:05.563Z,67.67
2018-04-11T21:15:33.040Z,65.93
2018-04-11T21:18:01.347Z,64.33
2018-04-11T21:20:28.800Z,65.07
2018-04-11T21:22:56.287Z,66.33
2018-04-11T21:25:23.744Z,60.80
2018-04-11T21:27:51.225Z,67.60
2018-04-11T21:30:18.688Z,61.73
2018-04-11T21:32:46.910Z,68.97
2018-04-11T21:35:14.381Z,61.93
2018-04-11T21:37:41.853Z,70.30
2018-04-11T21:40:09.320Z,70.67
2018-04-11T21:42:37.914Z,70.10
2018-04-11T21:45:05.373Z,74.27
2018-04-11T21:47:33.610Z,75.10
2018-04-11T21:50:01.112Z,71.30
2018-04-11T21:52:28.623Z,73.27
2018-04-11T21:54:56.093Z,76.27
2018-04-11T21:57:23.562Z,69.43
2018-04-11T21:59:51.022Z,76.90
2018-04-11T22:02:18.503Z,72.93
2018-04-11T22:04:46.732Z,65.83
2018-04-11T22:07:14.192Z,66.07
2018-04-11T22:09:41.686Z,71.83
2018-04-11T22:12:09.918Z,64.60
2018-04-11T22:14:37.788Z,65.40
2018-04-11T22:17:05.264Z,68.27
2018-04-11T22:19:32.732Z,64.27
2018-04-11T22:22:00.239Z,66.30
2018-04-11T22:24:27.696Z,64.67
2018-04-11T22:26:55.164Z,69.97
2018-04-11T22:29:22.654Z,68.33
2018-04-11T22:31:50.620Z,67.93
2018-04-11T22:34:18.091Z,73.30
2018-04-11T22:36:46.335Z,66.47
2018-04-11T22:39:13.811Z,67.73
2018-04-11T22:41:41.279Z,65.43
2018-04-11T22:44:09.516Z,63.93
2018-04-11T22:46:36.972Z,62.60
2018-04-11T22:49:04.445Z,61.50
2018-04-11T22:51:31.906Z,65.03
2018-04-11T22:53:59.377Z,67.37
2018-04-11T22:56:27.623Z,64.73
2018-04-11T22:58:55.080Z,66.20
2018-04-11T23:01:22.550Z,63.50
2018-04-11T23:03:50.029Z,61.13
2018-04-11T23:06:18.270Z,59.80
2018-04-11T23:08:45.742Z,60.50
2018-04-11T23:11:13.224Z,62.77
2018-04-11T23:13:41.462Z,60.60
2018-04-11T23:16:08.918Z,61.73
2018-04-11T23:18:36.389Z,60.93
2018-04-11T23:21:03.849Z,62.47
2018-04-11T23:23:31.329Z,56.03
2018-04-11T23:25:59.570Z,60.13
2018-04-11T23:28:27.069Z,62.00
2018-04-11T23:30:54.520Z,58.37
2018-04-11T23:33:22.752Z,59.93
2018-04-11T23:35:50.229Z,63.33
2018-04-11T23:38:17.697Z,66.30
2018-04-11T23:40:45.937Z,67.00
2018-04-11T23:43:13.417Z,67.70
2018-04-11T23:45:40.882Z,68.10
2018-04-11T23:48:09.115Z,67.40
2018-04-11T23:50:36.621Z,64.00
2018-04-11T23:53:04.857Z,60.60
2018-04-11T23:55:32.321Z,55.70
2018-04-11T23:57:59.796Z,54.93
